createdAt,value
2022-08-12T00:00:44.103Z,12.20
2022-08-12T00:03:29.584Z,11.68
2022-08-12T00:06:15.665Z,12.48
2022-08-12T00:12:49.941Z,12.23
2022-08-12T00:15:37.164Z,13.68
2022-08-12T00:19:02.614Z,11.88
2022-08-12T00:21:48.547Z,11.48
2022-08-12T00:24:34.310Z,12.02
2022-08-12T00:27:19.799Z,12.45
2022-08-12T00:30:08.173Z,13.10
2022-08-12T00:32:56.509Z,12.32
2022-08-12T00:35:42.954Z,12.27
2022-08-12T00:39:13.741Z,11.63
2022-08-12T00:41:59.971Z,12.07
2022-08-12T00:44:27.257Z,13.55
2022-08-12T00:46:58.769Z,13.00
2022-08-12T00:49:28.295Z,13.15
2022-08-12T00:52:07.646Z,14.68
2022-08-12T00:54:44.508Z,13.05
2022-08-12T00:57:23.572Z,11.93
2022-08-12T01:00:09.925Z,12.63
2022-08-12T01:02:45.559Z,12.45
2022-08-12T01:05:36.869Z,13.88
2022-08-12T01:08:23.552Z,12.40
2022-08-12T01:11:09.848Z,13.27
2022-08-12T01:13:42.865Z,12.00
2022-08-12T01:16:12.050Z,13.02
2022-08-12T01:23:48.623Z,12.10
2022-08-12T01:26:23.329Z,11.95
2022-08-12T01:28:58.647Z,12.30
2022-08-12T01:31:27.591Z,11.90
2022-08-12T01:34:36.443Z,13.68
2022-08-12T01:37:00.718Z,12.32
2022-08-12T01:39:38.744Z,12.75
2022-08-12T01:42:28.287Z,12.25
2022-08-12T01:44:56.457Z,12.20
2022-08-12T01:52:20.601Z,12.73
2022-08-12T01:54:41.801Z,11.75
2022-08-12T01:57:57.168Z,13.52
2022-08-12T02:00:12.307Z,12.73
2022-08-12T02:02:49.092Z,13.80
2022-08-12T02:06:21.511Z,13.25
2022-08-12T02:09:14.556Z,12.68
2022-08-12T02:11:58.918Z,12.65
2022-08-12T02:15:12.996Z,13.25
2022-08-12T02:18:42.668Z,12.57
2022-08-12T02:21:26.828Z,12.27
2022-08-12T02:23:54.071Z,12.43
2022-08-12T02:26:22.899Z,12.77
2022-08-12T02:29:19.946Z,13.50
2022-08-12T02:31:48.895Z,12.50
2022-08-12T02:34:17.652Z,13.80
2022-08-12T02:36:47.595Z,13.27
2022-08-12T02:39:18.745Z,13.77
2022-08-12T02:41:48.678Z,14.02
2022-08-12T02:44:17.999Z,13.82
2022-08-12T02:46:50.341Z,13.38
2022-08-12T02:49:34.747Z,13.90
2022-08-12T02:52:02.861Z,14.73
2022-08-12T02:54:29.839Z,13.43
2022-08-12T02:56:56.726Z,13.75
2022-08-12T03:03:38.188Z,12.85
2022-08-12T03:06:15.799Z,13.55
2022-08-12T03:09:05.489Z,14.93
2022-08-12T03:11:48.730Z,15.20
2022-08-12T03:14:18.549Z,13.70
2022-08-12T03:16:53.783Z,15.27
2022-08-12T03:19:21.428Z,15.38
2022-08-12T03:22:09.469Z,14.63
2022-08-12T03:24:40.328Z,15.88
2022-08-12T03:27:09.522Z,15.77
2022-08-12T03:29:50.144Z,14.85
2022-08-12T03:32:36.099Z,13.95
2022-08-12T03:35:07.323Z,14.13
2022-08-12T03:37:39.875Z,14.00
2022-08-12T03:40:27.258Z,14.85
2022-08-12T03:43:12.537Z,14.95
2022-08-12T03:45:58.327Z,12.65
2022-08-12T03:48:46.485Z,14.45
2022-08-12T03:51:32.181Z,13.00
2022-08-12T03:54:18.471Z,13.27
2022-08-12T03:57:03.727Z,14.10
2022-08-12T03:59:50.579Z,13.60
2022-08-12T04:02:17.964Z,14.48
2022-08-12T04:04:47.245Z,14.20
2022-08-12T04:07:21.697Z,12.70
2022-08-12T04:09:48.650Z,12.80
2022-08-12T04:12:34.261Z,14.82
2022-08-12T04:15:03.699Z,14.43
2022-08-12T04:17:32.163Z,13.88
2022-08-12T04:20:00.364Z,14.73
2022-08-12T04:22:30.528Z,15.07
2022-08-12T04:25:02.142Z,13.77
2022-08-12T04:27:32.467Z,16.92
2022-08-12T04:30:30.890Z,15.32
2022-08-12T04:32:50.660Z,14.15
2022-08-12T04:35:18.357Z,14.27
2022-08-12T04:38:25.289Z,14.80
2022-08-12T04:40:53.629Z,15.70
2022-08-12T04:43:54.561Z,14.13
2022-08-12T04:46:07.639Z,14.77
2022-08-12T04:48:35.880Z,14.32
2022-08-12T04:51:03.275Z,14.82
2022-08-12T04:53:31.319Z,14.63
2022-08-12T04:55:58.273Z,14.88
2022-08-12T04:58:30.664Z,15.00
2022-08-12T05:00:57.744Z,14.90
2022-08-12T05:03:26.956Z,15.52
2022-08-12T05:05:56.838Z,14.93
2022-08-12T05:09:14.628Z,14.93
2022-08-12T05:11:53.669Z,13.30
2022-08-12T05:14:21.582Z,13.68
2022-08-12T05:16:48.500Z,15.27
2022-08-12T05:19:58.815Z,14.75
2022-08-12T05:22:28.174Z,14.52
2022-08-12T05:24:55.099Z,13.77
2022-08-12T05:27:23.369Z,14.10
2022-08-12T05:30:06.407Z,16.20
2022-08-12T05:32:37.080Z,13.65
2022-08-12T05:35:06.935Z,15.50
2022-08-12T05:37:35.517Z,13.85
2022-08-12T05:40:10.581Z,15.43
2022-08-12T05:42:38.416Z,15.25
2022-08-12T05:45:06.642Z,14.80
2022-08-12T05:47:54.347Z,15.13
2022-08-12T05:50:21.580Z,14.15
2022-08-12T05:52:48.600Z,13.60
2022-08-12T05:55:15.785Z,13.73
2022-08-12T05:57:48.947Z,14.88
2022-08-12T06:00:17.443Z,14.70
2022-08-12T06:02:46.392Z,14.77
2022-08-12T06:05:13.960Z,16.05
2022-08-12T06:08:05.930Z,15.25
2022-08-12T06:10:34.481Z,15.65
2022-08-12T06:13:02.735Z,16.15
2022-08-12T06:15:30.457Z,14.10
2022-08-12T06:18:35.096Z,15.73
2022-08-12T06:21:02.486Z,14.07
2022-08-12T06:23:30.507Z,14.27
2022-08-12T06:25:58.455Z,14.27
2022-08-12T06:28:52.181Z,14.88
2022-08-12T06:31:26.308Z,15.25
2022-08-12T06:34:35.795Z,13.98
2022-08-12T06:36:42.894Z,15.65
2022-08-12T06:39:15.057Z,14.30
2022-08-12T06:42:04.886Z,13.80
2022-08-12T06:44:50.434Z,14.73
2022-08-12T06:48:00.031Z,13.85
2022-08-12T06:50:27.512Z,13.45
2022-08-12T06:52:57.691Z,14.73
2022-08-12T06:55:26.129Z,12.82
2022-08-12T06:58:07.840Z,13.30
2022-08-12T07:00:38.228Z,13.15
2022-08-12T07:03:23.334Z,15.00
2022-08-12T07:05:51.045Z,11.48
2022-08-12T07:08:19.266Z,13.32
2022-08-12T07:10:59.041Z,13.73
2022-08-12T07:13:27.193Z,13.93
2022-08-12T07:15:56.817Z,14.05
2022-08-12T07:19:04.232Z,13.35
2022-08-12T07:21:59.546Z,14.30
2022-08-12T07:24:20.479Z,13.13
2022-08-12T07:26:47.566Z,12.85
2022-08-12T07:29:58.099Z,13.07
2022-08-12T07:32:31.778Z,13.10
2022-08-12T07:34:58.733Z,12.75
2022-08-12T07:37:26.881Z,12.80
2022-08-12T07:40:00.299Z,12.35
2022-08-12T07:42:29.646Z,14.70
2022-08-12T07:44:56.783Z,13.30
2022-08-12T07:47:24.664Z,12.18
2022-08-12T07:50:05.113Z,12.93
2022-08-12T07:52:43.074Z,13.10
2022-08-12T07:55:11.383Z,11.23
2022-08-12T07:57:55.933Z,12.88
2022-08-12T08:00:23.709Z,10.25
2022-08-12T08:02:54.451Z,12.38
2022-08-12T08:05:23.902Z,11.15
2022-08-12T08:07:53.374Z,12.15
2022-08-12T08:10:20.985Z,9.50
2022-08-12T08:12:53.581Z,10.98
2022-08-12T08:16:01.180Z,11.18
2022-08-12T08:18:26.377Z,9.98
2022-08-12T08:20:55.282Z,9.60
2022-08-12T08:23:22.226Z,10.05
2022-08-12T08:25:56.449Z,8.65
2022-08-12T08:28:24.531Z,9.05
2022-08-12T08:30:52.888Z,10.35
2022-08-12T08:33:23.718Z,11.43
2022-08-12T08:36:16.370Z,10.73
2022-08-12T08:38:57.495Z,9.93
2022-08-12T08:42:14.107Z,7.15
2022-08-12T08:44:38.312Z,10.05
2022-08-12T08:47:12.979Z,9.20
2022-08-12T08:49:40.449Z,9.50
2022-08-12T08:52:09.936Z,8.95
2022-08-12T08:54:37.855Z,8.30
2022-08-12T08:57:08.320Z,7.55
2022-08-12T08:59:35.800Z,9.77
2022-08-12T09:02:02.988Z,9.65
2022-08-12T09:07:51.628Z,12.35
2022-08-12T09:10:15.541Z,12.32
2022-08-12T09:13:23.153Z,6.50
2022-08-12T09:18:43.627Z,9.10
2022-08-12T09:21:11.972Z,9.10
2022-08-12T09:23:58.983Z,7.13
2022-08-12T09:26:28.984Z,9.20
2022-08-12T09:30:10.072Z,8.68
2022-08-12T09:32:11.526Z,9.80
2022-08-12T09:34:56.765Z,7.75
2022-08-12T09:37:26.821Z,10.05
2022-08-12T09:40:05.442Z,8.73
2022-08-12T09:43:17.493Z,7.18
2022-08-12T09:46:12.028Z,12.02
2022-08-12T09:48:39.399Z,9.07
2022-08-12T09:51:16.794Z,10.40
2022-08-12T09:54:08.688Z,14.52
2022-08-12T09:56:58.903Z,11.82
2022-08-12T10:00:17.092Z,8.88
2022-08-12T10:02:45.267Z,6.65
2022-08-12T10:05:04.399Z,7.15
2022-08-12T10:07:40.546Z,6.18
2022-08-12T10:10:22.978Z,8.35
2022-08-12T10:13:35.715Z,6.15
2022-08-12T10:16:22.680Z,5.20
2022-08-12T10:18:54.114Z,6.55
2022-08-12T10:21:36.400Z,8.52
2022-08-12T10:24:10.630Z,5.55
2022-08-12T10:30:38.428Z,7.63
2022-08-12T10:32:43.673Z,9.25
2022-08-12T10:35:14.825Z,6.13
2022-08-12T10:38:34.721Z,4.68
2022-08-12T10:41:58.594Z,4.70
2022-08-12T10:44:16.896Z,10.02
2022-08-12T10:46:49.177Z,8.73
2022-08-12T10:50:05.709Z,5.20
2022-08-12T10:52:34.807Z,5.30
2022-08-12T10:54:55.968Z,6.80
2022-08-12T10:58:15.434Z,5.22
2022-08-12T11:00:35.884Z,5.93
2022-08-12T11:04:25.226Z,5.75
2022-08-12T11:07:08.266Z,5.65
2022-08-12T11:08:42.319Z,5.25
2022-08-12T11:13:45.814Z,5.32
2022-08-12T11:19:28.423Z,4.40
2022-08-12T11:22:01.263Z,4.47
2022-08-12T11:24:33.569Z,4.78
2022-08-12T11:27:08.035Z,7.25
2022-08-12T11:30:02.502Z,7.65
2022-08-12T11:32:25.655Z,10.43
2022-08-12T11:34:54.903Z,9.38
2022-08-12T11:37:26.453Z,6.50
2022-08-12T11:42:35.901Z,6.70
2022-08-12T11:45:05.640Z,7.35
2022-08-12T11:50:11.805Z,4.20
2022-08-12T11:52:55.844Z,6.18
2022-08-12T11:55:25.310Z,4.22
2022-08-12T11:58:33.912Z,4.28
2022-08-12T12:03:44.121Z,4.15
2022-08-12T12:06:17.022Z,4.18
2022-08-12T12:08:50.576Z,4.47
2022-08-12T12:11:18.814Z,4.85
2022-08-12T12:14:07.631Z,5.32
2022-08-12T12:16:38.128Z,3.53
2022-08-12T12:19:06.910Z,4.22
2022-08-12T12:21:47.536Z,3.47
2022-08-12T12:24:21.600Z,4.65
2022-08-12T12:27:00.311Z,3.13
2022-08-12T12:30:19.273Z,3.22
2022-08-12T12:32:18.413Z,3.35
2022-08-12T12:35:14.404Z,3.90
2022-08-12T12:38:05.327Z,3.38
2022-08-12T12:40:21.068Z,3.55
2022-08-12T12:42:57.701Z,7.32
2022-08-12T12:45:33.264Z,2.92
2022-08-12T12:48:04.541Z,5.65
2022-08-12T12:50:35.714Z,5.75
2022-08-12T12:54:06.079Z,4.82
2022-08-12T12:55:57.771Z,5.15
2022-08-12T12:58:27.499Z,3.53
2022-08-12T13:00:59.843Z,4.32
2022-08-12T13:03:48.746Z,3.35
2022-08-12T13:06:19.090Z,2.55
2022-08-12T13:08:49.240Z,4.60
2022-08-12T13:11:16.152Z,3.38
2022-08-12T13:14:10.149Z,3.08
2022-08-12T13:16:30.277Z,6.22
2022-08-12T13:18:58.534Z,2.95
2022-08-12T13:21:33.267Z,4.85
2022-08-12T13:24:10.385Z,5.22
2022-08-12T13:26:40.629Z,3.33
2022-08-12T13:29:10.327Z,4.68
2022-08-12T13:31:46.391Z,2.53
2022-08-12T13:34:34.768Z,2.80
2022-08-12T13:37:09.097Z,6.47
2022-08-12T13:39:38.131Z,3.47
2022-08-12T13:42:14.386Z,3.85
2022-08-12T13:44:42.274Z,3.03
2022-08-12T13:47:18.475Z,3.08
2022-08-12T13:49:55.144Z,3.15
2022-08-12T13:52:23.565Z,2.47
2022-08-12T13:54:56.334Z,3.45
2022-08-12T13:57:44.817Z,2.58
2022-08-12T14:00:14.987Z,7.47
2022-08-12T14:02:44.365Z,6.93
2022-08-12T14:05:37.467Z,2.80
2022-08-12T14:08:06.469Z,4.75
2022-08-12T14:10:39.186Z,3.00
2022-08-12T14:14:05.448Z,5.72
2022-08-12T14:16:14.301Z,2.50
2022-08-12T14:18:44.760Z,3.15
2022-08-12T14:21:18.159Z,2.45
2022-08-12T14:24:04.166Z,2.72
2022-08-12T14:26:32.853Z,1.92
2022-08-12T14:29:02.414Z,2.17
2022-08-12T14:31:31.515Z,4.55
2022-08-12T14:33:59.457Z,2.92
2022-08-12T14:36:26.922Z,2.00
2022-08-12T14:38:56.032Z,2.00
2022-08-12T14:41:37.184Z,3.88
2022-08-12T14:44:59.706Z,2.30
2022-08-12T14:47:00.693Z,2.50
2022-08-12T14:50:33.666Z,4.15
2022-08-12T14:53:42.434Z,4.22
2022-08-12T14:58:03.831Z,1.98
2022-08-12T15:00:52.226Z,3.25
2022-08-12T15:03:52.952Z,1.90
2022-08-12T15:06:43.675Z,2.42
2022-08-12T15:09:03.403Z,3.63
2022-08-12T15:11:54.702Z,2.92
2022-08-12T15:14:17.372Z,4.20
2022-08-12T15:16:45.944Z,2.53
2022-08-12T15:20:10.981Z,3.22
2022-08-12T15:22:37.981Z,3.47
2022-08-12T15:24:48.787Z,2.30
2022-08-12T15:27:15.691Z,2.38
2022-08-12T15:29:52.414Z,2.25
2022-08-12T15:32:20.251Z,3.28
2022-08-12T15:35:00.691Z,3.40
2022-08-12T15:38:08.285Z,4.78
2022-08-12T15:40:30.154Z,5.68
2022-08-12T15:45:32.191Z,4.15
2022-08-12T15:48:16.357Z,3.47
2022-08-12T15:50:45.469Z,2.92
2022-08-12T15:53:37.843Z,4.25
2022-08-12T15:56:07.947Z,3.22
2022-08-12T15:58:43.873Z,4.80
2022-08-12T16:01:15.255Z,4.25
2022-08-12T16:03:45.977Z,4.63
2022-08-12T16:06:51.012Z,3.42
2022-08-12T16:09:17.359Z,5.22
2022-08-12T16:11:48.833Z,3.08
2022-08-12T16:14:16.329Z,3.83
2022-08-12T16:16:43.431Z,3.10
2022-08-12T16:20:03.425Z,5.60
2022-08-12T16:22:07.111Z,3.08
2022-08-12T16:27:10.968Z,4.55
2022-08-12T16:29:53.292Z,3.78
2022-08-12T16:32:24.275Z,3.53
2022-08-12T16:34:54.919Z,3.80
2022-08-12T16:37:32.224Z,6.00
2022-08-12T16:40:06.138Z,5.03
2022-08-12T16:42:39.109Z,3.40
2022-08-12T16:45:13.885Z,7.20
2022-08-12T16:47:59.040Z,3.75
2022-08-12T16:50:31.341Z,4.00
2022-08-12T16:53:03.274Z,3.60
2022-08-12T16:55:41.744Z,6.25
2022-08-12T16:58:18.553Z,4.78
2022-08-12T17:00:58.755Z,5.80
2022-08-12T17:03:32.448Z,5.35
2022-08-12T17:06:06.413Z,4.38
2022-08-12T17:08:36.041Z,5.07
2022-08-12T17:11:08.349Z,5.95
2022-08-12T17:16:20.460Z,3.83
2022-08-12T17:18:57.474Z,5.57
2022-08-12T17:21:40.767Z,3.90
2022-08-12T17:24:21.267Z,5.13
2022-08-12T17:26:50.454Z,6.90
2022-08-12T17:29:23.940Z,4.97
2022-08-12T17:32:05.177Z,3.77
2022-08-12T17:34:50.693Z,6.97
2022-08-12T17:37:18.928Z,5.90
2022-08-12T17:40:12.771Z,3.42
2022-08-12T17:42:38.496Z,7.90
2022-08-12T17:45:17.004Z,10.27
2022-08-12T17:48:01.696Z,4.63
2022-08-12T17:50:38.281Z,4.90
2022-08-12T17:53:07.954Z,6.07
2022-08-12T17:55:43.501Z,6.75
2022-08-12T17:58:37.429Z,3.97
2022-08-12T18:01:11.046Z,4.10
2022-08-12T18:04:04.866Z,3.75
2022-08-12T18:06:27.895Z,6.03
2022-08-12T18:08:59.913Z,6.35
2022-08-12T18:12:06.675Z,5.85
2022-08-12T18:14:37.268Z,5.80
2022-08-12T18:17:08.688Z,8.18
2022-08-12T18:20:06.205Z,5.10
2022-08-12T18:22:30.852Z,4.32
2022-08-12T18:26:13.284Z,4.15
2022-08-12T18:28:15.720Z,9.52
2022-08-12T18:30:52.849Z,4.03
2022-08-12T18:33:26.909Z,7.13
2022-08-12T18:38:59.556Z,5.88
2022-08-12T18:41:35.827Z,3.88
2022-08-12T18:44:09.666Z,4.68
2022-08-12T18:46:56.343Z,5.00
2022-08-12T18:49:48.300Z,6.25
2022-08-12T18:52:17.484Z,6.20
2022-08-12T18:54:49.120Z,5.78
2022-08-12T18:57:45.423Z,4.82
2022-08-12T19:00:20.822Z,4.63
2022-08-12T19:03:00.488Z,4.93
2022-08-12T19:05:53.084Z,5.45
2022-08-12T19:08:15.943Z,4.22
2022-08-12T19:10:48.078Z,5.43
2022-08-12T19:13:37.446Z,5.25
2022-08-12T19:16:11.378Z,4.63
2022-08-12T19:18:45.215Z,5.03
2022-08-12T19:21:16.298Z,7.85
2022-08-12T19:24:04.519Z,4.90
2022-08-12T19:26:34.461Z,8.68
2022-08-12T19:29:05.063Z,7.60
2022-08-12T19:31:57.633Z,6.85
2022-08-12T19:35:54.177Z,5.65
2022-08-12T19:38:06.708Z,7.07
2022-08-12T19:40:34.525Z,6.50
2022-08-12T19:45:57.137Z,5.55
2022-08-12T19:49:05.474Z,5.82
2022-08-12T19:51:38.380Z,5.38
2022-08-12T19:54:06.143Z,6.60
2022-08-12T19:56:34.699Z,5.45
2022-08-12T19:59:24.598Z,5.57
2022-08-12T20:02:16.492Z,7.47
2022-08-12T20:06:05.123Z,6.22
2022-08-12T20:08:18.615Z,5.72
2022-08-12T20:12:09.107Z,6.55
2022-08-12T20:14:01.027Z,6.63
2022-08-12T20:16:51.845Z,6.38
2022-08-12T20:19:19.963Z,6.78
2022-08-12T20:21:46.954Z,7.45
2022-08-12T20:24:14.424Z,10.27
2022-08-12T20:26:43.063Z,9.27
2022-08-12T20:29:35.577Z,6.95
2022-08-12T20:34:32.403Z,10.68
2022-08-12T20:37:04.627Z,6.75
2022-08-12T20:39:52.294Z,10.30
2022-08-12T20:42:23.188Z,8.95
2022-08-12T20:44:52.943Z,8.68
2022-08-12T20:47:22.015Z,7.50
2022-08-12T20:49:55.662Z,9.57
2022-08-12T20:52:29.887Z,9.65
2022-08-12T20:54:58.227Z,7.68
2022-08-12T20:58:02.931Z,7.90
2022-08-12T21:00:32.398Z,7.75
2022-08-12T21:03:20.178Z,8.48
2022-08-12T21:06:11.839Z,8.02
2022-08-12T21:09:01.427Z,10.02
2022-08-12T21:11:30.205Z,10.23
2022-08-12T21:13:59.283Z,14.10
2022-08-12T21:16:36.044Z,10.23
2022-08-12T21:19:11.841Z,9.63
2022-08-12T21:21:50.678Z,14.80
2022-08-12T21:24:17.832Z,8.20
2022-08-12T21:26:53.383Z,11.98
2022-08-12T21:29:23.416Z,8.68
2022-08-12T21:32:36.698Z,10.20
2022-08-12T21:34:42.221Z,8.95
2022-08-12T21:37:13.191Z,12.50
2022-08-12T21:39:56.447Z,11.73
2022-08-12T21:42:29.315Z,9.43
2022-08-12T21:45:47.004Z,11.30
2022-08-12T21:47:53.208Z,9.20
2022-08-12T21:50:20.423Z,9.90
2022-08-12T21:52:49.241Z,12.43
2022-08-12T21:55:19.086Z,10.98
2022-08-12T21:57:54.555Z,11.07
2022-08-12T22:00:32.137Z,9.98
2022-08-12T22:04:04.305Z,12.55
2022-08-12T22:06:31.439Z,11.73
2022-08-12T22:09:15.423Z,10.93
2022-08-12T22:11:56.020Z,12.15
2022-08-12T22:14:24.055Z,16.20
2022-08-12T22:16:53.966Z,12.38
2022-08-12T22:19:22.929Z,11.02
2022-08-12T22:21:53.544Z,12.18
2022-08-12T22:24:27.248Z,15.07
2022-08-12T22:27:08.336Z,12.77
2022-08-12T22:30:07.903Z,12.18
2022-08-12T22:32:41.948Z,19.30
2022-08-12T22:35:29.242Z,12.18
2022-08-12T22:38:19.940Z,10.90
2022-08-12T22:40:55.723Z,12.90
2022-08-12T22:44:00.765Z,12.13
2022-08-12T22:46:37.315Z,15.20
2022-08-12T22:49:53.566Z,18.05
2022-08-12T22:52:26.838Z,11.18
2022-08-12T22:55:04.189Z,11.85
2022-08-12T22:57:49.455Z,12.95
2022-08-12T23:00:23.469Z,14.32
2022-08-12T23:02:56.667Z,12.70
2022-08-12T23:05:57.529Z,14.05
2022-08-12T23:08:17.919Z,17.33
2022-08-12T23:10:46.483Z,12.07
2022-08-12T23:13:43.334Z,11.65
2022-08-12T23:16:18.147Z,12.27
2022-08-12T23:19:23.255Z,12.55
2022-08-12T23:22:06.278Z,13.27
2022-08-12T23:24:55.483Z,12.15
2022-08-12T23:27:52.274Z,10.90
2022-08-12T23:30:31.751Z,11.20
2022-08-12T23:33:20.179Z,12.38
2022-08-12T23:35:59.422Z,14.35
2022-08-12T23:38:33.077Z,14.18
2022-08-12T23:41:02.736Z,13.77
2022-08-12T23:43:39.822Z,13.05
2022-08-12T23:46:18.655Z,15.05
2022-08-12T23:48:48.095Z,13.13
2022-08-12T23:51:23.113Z,15.40
2022-08-12T23:53:55.002Z,18.52
2022-08-12T23:56:23.698Z,13.18
2022-08-12T23:58:55.294Z,18.35
